Saint Paul, MN (55168)

1:24 PM CDT on May 04, 2015 (GMT -0500)
Mounds Park, East Metro | | Change Station
CLOSE
Current Station
Personal Weather Station
Location: Saint Paul, MN
Elevation: 850 ft
Nearby Weather Stations

Elev 850 ft 44.95 °N, 93.06 °W | Updated 9 minutes ago

Clear
Clear
65.2 °F
Feels Like 65.2 °F
N
2.0
Wind Variable Wind from NNE
Gusts 11.0 mph

Today
High -- | Low -- °F
--% Chance of Precip.
Yesterday
High -- | Low -- °F
Precip. -- in
5:57 AM 8:21 PM
Full, 100% visible
Pressure 30.19 in
Visibility 10.0 miles
Clouds Clear
Dew Point 28 °F
Humidity 24%
Rainfall -999.00 in
Snow Depth Not available.
UV 10 out of 12
Pollen 9.80 out of 12
Air Quality Not available.
Flu Activity Sporadic
METAR KSTP 041753Z 35008G15KT 10SM CLR 19/00 A3019 RMK AO2 SLP222 6//// T01890000 10194 20100 50009

More Conditions Fewer Conditions

Pressure 30.19 in
Visibility 10.0 miles
Clouds Clear
Dew Point 28 °F
Humidity 24%
Rainfall -999.00 in
Snow Depth Not available.
UV 10 out of 12
Pollen 9.80 out of 12
Air Quality Not available.
Flu Activity Sporadic
METAR KSTP 041753Z 35008G15KT 10SM CLR 19/00 A3019 RMK AO2 SLP222 6//// T01890000 10194 20100 50009

More Conditions Fewer Conditions

Nepal has a long way to go to dig out and rebuild from a devastating earthquake. We have teamed up with several charities and organizations to make contributing to the relief effort as easy as possible.
How you can help: Portlight Strategies | Red Cross

10-Day Weather Forecast

Almanac

Astronomy

May. 04, 2015 Rise Set
Actual Time
Civil Twilight
Nautical Twilight
Astronomical Twilight
Moon
Length of Visible Light
Length of Day
Tomorrow will be .
, % of the Moon is Illuminated

Today's Extremes

State Highs State Lows

Community

WunderPhotos

Upload Photos

1,818,665 photos uploaded!

WunderBlogs® & News

Nearby

Air Quality

  Air Quality AQ Index Pollutant
Not available.

Snow Depth

Station Depth Elevation

Earthquake Activity

City Distance Mag. Time & Date
Minimum magnitude displayed is 2.5.

Coastal Water Temperatures

Place Temperature

Stations

Nearby Weather Stations

Station Location Temp. Windchill Dew Point Humidity Wind Precip. Elev Updated Type